sensor_id;sensor_type;location;lat;lon;timestamp;temperature;humidity
73688;SHT30;62257;48.376;-4.378;2023-01-05T00:01:42;13.34;89.47
73688;SHT30;62257;48.376;-4.378;2023-01-05T00:04:08;13.35;89.54
73688;SHT30;62257;48.376;-4.378;2023-01-05T00:06:33;13.36;89.60
73688;SHT30;62257;48.376;-4.378;2023-01-05T00:08:59;13.36;89.67
73688;SHT30;62257;48.376;-4.378;2023-01-05T00:11:26;13.39;89.48
73688;SHT30;62257;48.376;-4.378;2023-01-05T00:14:22;13.38;89.39
73688;SHT30;62257;48.376;-4.378;2023-01-05T00:17:09;13.39;89.44
73688;SHT30;62257;48.376;-4.378;2023-01-05T00:19:54;13.38;89.39
73688;SHT30;62257;48.376;-4.378;2023-01-05T00:22:49;13.36;89.46
73688;SHT30;62257;48.376;-4.378;2023-01-05T00:27:46;13.40;89.37
73688;SHT30;62257;48.376;-4.378;2023-01-05T00:30:14;13.39;89.32
73688;SHT30;62257;48.376;-4.378;2023-01-05T00:32:41;13.42;89.00
73688;SHT30;62257;48.376;-4.378;2023-01-05T00:35:07;13.42;89.25
73688;SHT30;62257;48.376;-4.378;2023-01-05T00:37:33;13.43;89.03
73688;SHT30;62257;48.376;-4.378;2023-01-05T00:39:59;13.45;89.14
73688;SHT30;62257;48.376;-4.378;2023-01-05T00:42:24;13.45;89.15
73688;SHT30;62257;48.376;-4.378;2023-01-05T00:44:50;13.43;89.15
73688;SHT30;62257;48.376;-4.378;2023-01-05T00:47:15;13.43;89.31
73688;SHT30;62257;48.376;-4.378;2023-01-05T00:49:41;13.43;89.17
73688;SHT30;62257;48.376;-4.378;2023-01-05T00:52:07;13.45;89.33
73688;SHT30;62257;48.376;-4.378;2023-01-05T00:54:33;13.45;89.12
73688;SHT30;62257;48.376;-4.378;2023-01-05T00:56:59;13.48;89.17
73688;SHT30;62257;48.376;-4.378;2023-01-05T00:59:24;13.42;88.87
73688;SHT30;62257;48.376;-4.378;2023-01-05T01:01:51;13.45;89.08
73688;SHT30;62257;48.376;-4.378;2023-01-05T01:04:17;13.45;89.28
73688;SHT30;62257;48.376;-4.378;2023-01-05T01:06:44;13.42;89.02
73688;SHT30;62257;48.376;-4.378;2023-01-05T01:09:10;13.42;89.10
73688;SHT30;62257;48.376;-4.378;2023-01-05T01:11:36;13.40;89.17
73688;SHT30;62257;48.376;-4.378;2023-01-05T01:14:03;13.43;89.24
73688;SHT30;62257;48.376;-4.378;2023-01-05T01:16:29;13.43;89.19
73688;SHT30;62257;48.376;-4.378;2023-01-05T01:18:55;13.45;89.10
73688;SHT30;62257;48.376;-4.378;2023-01-05T01:21:21;13.48;89.33
73688;SHT30;62257;48.376;-4.378;2023-01-05T01:23:46;13.46;88.92
73688;SHT30;62257;48.376;-4.378;2023-01-05T01:26:12;13.45;89.18
73688;SHT30;62257;48.376;-4.378;2023-01-05T01:28:38;13.45;89.10
73688;SHT30;62257;48.376;-4.378;2023-01-05T01:31:05;13.43;88.53
73688;SHT30;62257;48.376;-4.378;2023-01-05T01:33:31;13.42;88.94
73688;SHT30;62257;48.376;-4.378;2023-01-05T01:35:57;13.40;88.89
73688;SHT30;62257;48.376;-4.378;2023-01-05T01:38:23;13.43;88.73
73688;SHT30;62257;48.376;-4.378;2023-01-05T01:40:49;13.36;88.94
73688;SHT30;62257;48.376;-4.378;2023-01-05T01:43:43;13.36;89.10
73688;SHT30;62257;48.376;-4.378;2023-01-05T01:46:11;13.39;88.98
73688;SHT30;62257;48.376;-4.378;2023-01-05T01:48:38;13.39;88.97
73688;SHT30;62257;48.376;-4.378;2023-01-05T01:51:34;13.38;88.92
73688;SHT30;62257;48.376;-4.378;2023-01-05T01:53:59;13.42;88.98
73688;SHT30;62257;48.376;-4.378;2023-01-05T01:56:31;13.42;89.08
73688;SHT30;62257;48.376;-4.378;2023-01-05T01:58:57;13.39;89.11
73688;SHT30;62257;48.376;-4.378;2023-01-05T02:01:22;13.35;88.99
73688;SHT30;62257;48.376;-4.378;2023-01-05T02:03:48;13.36;88.97
73688;SHT30;62257;48.376;-4.378;2023-01-05T02:06:14;13.35;89.01
73688;SHT30;62257;48.376;-4.378;2023-01-05T02:08:39;13.34;88.69
73688;SHT30;62257;48.376;-4.378;2023-01-05T02:16:53;13.32;88.76
73688;SHT30;62257;48.376;-4.378;2023-01-05T02:19:47;13.35;88.81
73688;SHT30;62257;48.376;-4.378;2023-01-05T02:28:13;13.35;88.85
73688;SHT30;62257;48.376;-4.378;2023-01-05T02:31:01;13.38;88.74
73688;SHT30;62257;48.376;-4.378;2023-01-05T02:33:42;13.35;88.83
73688;SHT30;62257;48.376;-4.378;2023-01-05T02:38:55;13.34;88.56
73688;SHT30;62257;48.376;-4.378;2023-01-05T02:41:36;13.30;88.60
73688;SHT30;62257;48.376;-4.378;2023-01-05T02:44:03;13.30;88.83
73688;SHT30;62257;48.376;-4.378;2023-01-05T02:46:31;13.30;88.89
73688;SHT30;62257;48.376;-4.378;2023-01-05T02:48:57;13.29;88.87
73688;SHT30;62257;48.376;-4.378;2023-01-05T02:51:33;13.26;88.58
73688;SHT30;62257;48.376;-4.378;2023-01-05T02:57:08;13.26;88.69
73688;SHT30;62257;48.376;-4.378;2023-01-05T02:59:44;13.29;88.74
73688;SHT30;62257;48.376;-4.378;2023-01-05T03:02:18;13.25;88.43
73688;SHT30;62257;48.376;-4.378;2023-01-05T03:04:55;13.29;88.61
73688;SHT30;62257;48.376;-4.378;2023-01-05T03:07:27;13.28;88.87
73688;SHT30;62257;48.376;-4.378;2023-01-05T03:09:53;13.28;88.52
73688;SHT30;62257;48.376;-4.378;2023-01-05T03:12:32;13.28;88.36
73688;SHT30;62257;48.376;-4.378;2023-01-05T03:15:38;13.30;88.50
73688;SHT30;62257;48.376;-4.378;2023-01-05T03:18:06;13.29;88.30
73688;SHT30;62257;48.376;-4.378;2023-01-05T03:20:32;13.30;88.23
73688;SHT30;62257;48.376;-4.378;2023-01-05T03:23:01;13.32;88.37
73688;SHT30;62257;48.376;-4.378;2023-01-05T03:25:47;13.34;88.49
73688;SHT30;62257;48.376;-4.378;2023-01-05T03:28:46;13.30;88.28
73688;SHT30;62257;48.376;-4.378;2023-01-05T03:34:41;13.30;88.33
73688;SHT30;62257;48.376;-4.378;2023-01-05T03:37:48;13.34;88.76
73688;SHT30;62257;48.376;-4.378;2023-01-05T03:40:27;13.34;88.12
73688;SHT30;62257;48.376;-4.378;2023-01-05T03:42:54;13.30;88.45
73688;SHT30;62257;48.376;-4.378;2023-01-05T03:45:20;13.32;88.13
73688;SHT30;62257;48.376;-4.378;2023-01-05T03:47:47;13.32;88.31
73688;SHT30;62257;48.376;-4.378;2023-01-05T03:50:13;13.36;88.31
73688;SHT30;62257;48.376;-4.378;2023-01-05T03:52:38;13.36;88.53
73688;SHT30;62257;48.376;-4.378;2023-01-05T03:55:04;13.35;88.26
73688;SHT30;62257;48.376;-4.378;2023-01-05T03:57:30;13.35;88.41
73688;SHT30;62257;48.376;-4.378;2023-01-05T03:59:55;13.34;88.05
73688;SHT30;62257;48.376;-4.378;2023-01-05T04:02:20;13.36;88.24
73688;SHT30;62257;48.376;-4.378;2023-01-05T04:04:46;13.38;88.28
73688;SHT30;62257;48.376;-4.378;2023-01-05T04:07:11;13.38;88.23
73688;SHT30;62257;48.376;-4.378;2023-01-05T04:09:36;13.40;88.12
73688;SHT30;62257;48.376;-4.378;2023-01-05T04:12:02;13.42;88.00
73688;SHT30;62257;48.376;-4.378;2023-01-05T04:14:27;13.42;88.19
73688;SHT30;62257;48.376;-4.378;2023-01-05T04:16:53;13.43;87.92
73688;SHT30;62257;48.376;-4.378;2023-01-05T04:19:18;13.43;87.99
73688;SHT30;62257;48.376;-4.378;2023-01-05T04:21:43;13.43;87.88
73688;SHT30;62257;48.376;-4.378;2023-01-05T04:24:09;13.42;87.85
73688;SHT30;62257;48.376;-4.378;2023-01-05T04:26:35;13.40;88.18
73688;SHT30;62257;48.376;-4.378;2023-01-05T04:29:03;13.42;87.89
73688;SHT30;62257;48.376;-4.378;2023-01-05T04:31:29;13.42;87.88
73688;SHT30;62257;48.376;-4.378;2023-01-05T04:33:54;13.40;87.95
73688;SHT30;62257;48.376;-4.378;2023-01-05T04:36:20;13.45;88.10
73688;SHT30;62257;48.376;-4.378;2023-01-05T04:38:45;13.45;88.27
73688;SHT30;62257;48.376;-4.378;2023-01-05T04:41:10;13.42;87.87
73688;SHT30;62257;48.376;-4.378;2023-01-05T04:43:36;13.45;88.10
73688;SHT30;62257;48.376;-4.378;2023-01-05T04:46:01;13.45;87.89
73688;SHT30;62257;48.376;-4.378;2023-01-05T04:48:27;13.48;87.98
73688;SHT30;62257;48.376;-4.378;2023-01-05T04:50:53;13.45;87.58
73688;SHT30;62257;48.376;-4.378;2023-01-05T04:53:19;13.45;87.60
73688;SHT30;62257;48.376;-4.378;2023-01-05T04:55:44;13.45;87.54
73688;SHT30;62257;48.376;-4.378;2023-01-05T04:58:10;13.46;88.02
73688;SHT30;62257;48.376;-4.378;2023-01-05T05:00:35;13.43;87.79
73688;SHT30;62257;48.376;-4.378;2023-01-05T05:03:01;13.42;87.82
73688;SHT30;62257;48.376;-4.378;2023-01-05T05:05:27;13.45;87.63
73688;SHT30;62257;48.376;-4.378;2023-01-05T05:07:52;13.45;87.62
73688;SHT30;62257;48.376;-4.378;2023-01-05T05:10:18;13.45;87.59
73688;SHT30;62257;48.376;-4.378;2023-01-05T05:12:43;13.42;87.77
73688;SHT30;62257;48.376;-4.378;2023-01-05T05:15:10;13.40;87.61
73688;SHT30;62257;48.376;-4.378;2023-01-05T05:17:35;13.42;87.28
73688;SHT30;62257;48.376;-4.378;2023-01-05T05:20:01;13.39;87.56
73688;SHT30;62257;48.376;-4.378;2023-01-05T05:22:26;13.38;87.24
73688;SHT30;62257;48.376;-4.378;2023-01-05T05:24:52;13.32;87.82
73688;SHT30;62257;48.376;-4.378;2023-01-05T05:27:18;13.29;87.52
73688;SHT30;62257;48.376;-4.378;2023-01-05T05:29:43;13.29;87.65
73688;SHT30;62257;48.376;-4.378;2023-01-05T05:32:09;13.29;87.64
73688;SHT30;62257;48.376;-4.378;2023-01-05T05:34:34;13.28;87.59
73688;SHT30;62257;48.376;-4.378;2023-01-05T05:37:00;13.25;87.13
73688;SHT30;62257;48.376;-4.378;2023-01-05T05:39:25;13.25;87.33
73688;SHT30;62257;48.376;-4.378;2023-01-05T05:41:50;13.26;87.55
73688;SHT30;62257;48.376;-4.378;2023-01-05T05:44:16;13.22;87.19
73688;SHT30;62257;48.376;-4.378;2023-01-05T05:46:41;13.21;87.33
73688;SHT30;62257;48.376;-4.378;2023-01-05T05:49:07;13.18;87.46
73688;SHT30;62257;48.376;-4.378;2023-01-05T05:51:33;13.18;87.51
73688;SHT30;62257;48.376;-4.378;2023-01-05T05:53:58;13.16;87.40
73688;SHT30;62257;48.376;-4.378;2023-01-05T05:56:24;13.16;87.35
73688;SHT30;62257;48.376;-4.378;2023-01-05T05:58:49;13.15;87.45
73688;SHT30;62257;48.376;-4.378;2023-01-05T06:01:14;13.15;87.37
73688;SHT30;62257;48.376;-4.378;2023-01-05T06:03:40;13.12;87.28
73688;SHT30;62257;48.376;-4.378;2023-01-05T06:06:05;13.12;87.46
73688;SHT30;62257;48.376;-4.378;2023-01-05T06:08:31;13.15;87.37
73688;SHT30;62257;48.376;-4.378;2023-01-05T06:10:56;13.15;87.47
73688;SHT30;62257;48.376;-4.378;2023-01-05T06:13:22;13.14;87.18
73688;SHT30;62257;48.376;-4.378;2023-01-05T06:15:48;13.11;87.09
73688;SHT30;62257;48.376;-4.378;2023-01-05T06:18:14;13.08;87.49
73688;SHT30;62257;48.376;-4.378;2023-01-05T06:20:40;13.07;87.30
73688;SHT30;62257;48.376;-4.378;2023-01-05T06:23:06;13.07;86.84
73688;SHT30;62257;48.376;-4.378;2023-01-05T06:25:32;13.07;87.51
73688;SHT30;62257;48.376;-4.378;2023-01-05T06:27:58;13.08;87.44
73688;SHT30;62257;48.376;-4.378;2023-01-05T06:30:24;13.11;87.40
73688;SHT30;62257;48.376;-4.378;2023-01-05T06:32:49;13.08;87.05
73688;SHT30;62257;48.376;-4.378;2023-01-05T06:35:15;13.07;86.71
73688;SHT30;62257;48.376;-4.378;2023-01-05T06:37:41;13.08;86.64
73688;SHT30;62257;48.376;-4.378;2023-01-05T06:40:06;13.05;86.51
73688;SHT30;62257;48.376;-4.378;2023-01-05T06:42:34;13.04;86.64
73688;SHT30;62257;48.376;-4.378;2023-01-05T06:44:59;13.04;86.63
73688;SHT30;62257;48.376;-4.378;2023-01-05T06:47:25;13.04;86.53
73688;SHT30;62257;48.376;-4.378;2023-01-05T06:49:50;13.04;86.54
73688;SHT30;62257;48.376;-4.378;2023-01-05T06:52:15;13.02;86.89
73688;SHT30;62257;48.376;-4.378;2023-01-05T06:54:41;13.00;85.98
73688;SHT30;62257;48.376;-4.378;2023-01-05T06:57:06;12.98;86.50
73688;SHT30;62257;48.376;-4.378;2023-01-05T06:59:32;13.00;86.60
73688;SHT30;62257;48.376;-4.378;2023-01-05T07:01:57;12.98;86.20
73688;SHT30;62257;48.376;-4.378;2023-01-05T07:04:23;13.01;85.93
73688;SHT30;62257;48.376;-4.378;2023-01-05T07:06:48;12.98;86.66
73688;SHT30;62257;48.376;-4.378;2023-01-05T07:09:14;12.97;86.24
73688;SHT30;62257;48.376;-4.378;2023-01-05T07:11:39;12.95;86.91
73688;SHT30;62257;48.376;-4.378;2023-01-05T07:14:04;12.95;86.36
73688;SHT30;62257;48.376;-4.378;2023-01-05T07:16:30;12.94;85.98
73688;SHT30;62257;48.376;-4.378;2023-01-05T07:18:55;12.95;86.62
73688;SHT30;62257;48.376;-4.378;2023-01-05T07:21:21;12.94;87.02
73688;SHT30;62257;48.376;-4.378;2023-01-05T07:23:46;12.94;86.75
73688;SHT30;62257;48.376;-4.378;2023-01-05T07:26:11;12.92;85.87
73688;SHT30;62257;48.376;-4.378;2023-01-05T07:28:37;12.95;86.37
73688;SHT30;62257;48.376;-4.378;2023-01-05T07:31:03;12.94;87.08
73688;SHT30;62257;48.376;-4.378;2023-01-05T07:33:29;12.94;86.56
73688;SHT30;62257;48.376;-4.378;2023-01-05T07:35:59;12.95;86.42
73688;SHT30;62257;48.376;-4.378;2023-01-05T07:38:25;12.97;86.38
73688;SHT30;62257;48.376;-4.378;2023-01-05T07:40:50;12.95;86.30
73688;SHT30;62257;48.376;-4.378;2023-01-05T07:43:16;12.94;85.93
73688;SHT30;62257;48.376;-4.378;2023-01-05T07:45:41;12.95;85.53
73688;SHT30;62257;48.376;-4.378;2023-01-05T07:48:07;12.97;85.87
73688;SHT30;62257;48.376;-4.378;2023-01-05T07:50:32;12.94;85.52
73688;SHT30;62257;48.376;-4.378;2023-01-05T07:52:58;12.98;86.89
73688;SHT30;62257;48.376;-4.378;2023-01-05T07:55:24;12.94;86.10
73688;SHT30;62257;48.376;-4.378;2023-01-05T07:57:49;12.95;85.97
73688;SHT30;62257;48.376;-4.378;2023-01-05T08:00:15;12.94;85.47
73688;SHT30;62257;48.376;-4.378;2023-01-05T08:02:41;12.95;85.96
73688;SHT30;62257;48.376;-4.378;2023-01-05T08:05:08;12.95;84.56
73688;SHT30;62257;48.376;-4.378;2023-01-05T08:07:34;12.98;85.46
73688;SHT30;62257;48.376;-4.378;2023-01-05T08:10:00;12.97;85.60
73688;SHT30;62257;48.376;-4.378;2023-01-05T08:12:44;13.01;85.37
73688;SHT30;62257;48.376;-4.378;2023-01-05T08:15:28;12.98;85.27
73688;SHT30;62257;48.376;-4.378;2023-01-05T08:17:53;13.00;85.36
73688;SHT30;62257;48.376;-4.378;2023-01-05T08:20:19;12.98;85.38
73688;SHT30;62257;48.376;-4.378;2023-01-05T08:22:49;13.01;85.06
73688;SHT30;62257;48.376;-4.378;2023-01-05T08:25:15;13.02;85.03
73688;SHT30;62257;48.376;-4.378;2023-01-05T08:27:40;13.00;85.51
73688;SHT30;62257;48.376;-4.378;2023-01-05T08:30:06;13.00;86.14
73688;SHT30;62257;48.376;-4.378;2023-01-05T08:32:32;13.07;85.49
73688;SHT30;62257;48.376;-4.378;2023-01-05T08:34:57;13.07;85.72
73688;SHT30;62257;48.376;-4.378;2023-01-05T08:37:22;13.05;85.69
73688;SHT30;62257;48.376;-4.378;2023-01-05T08:39:48;13.05;86.10
73688;SHT30;62257;48.376;-4.378;2023-01-05T08:42:13;13.10;86.63
73688;SHT30;62257;48.376;-4.378;2023-01-05T08:44:38;13.12;86.01
73688;SHT30;62257;48.376;-4.378;2023-01-05T08:47:04;13.15;85.38
73688;SHT30;62257;48.376;-4.378;2023-01-05T08:49:29;13.14;84.90
73688;SHT30;62257;48.376;-4.378;2023-01-05T08:51:55;13.19;86.37
73688;SHT30;62257;48.376;-4.378;2023-01-05T08:54:20;13.21;85.59
73688;SHT30;62257;48.376;-4.378;2023-01-05T08:56:45;13.23;85.35
73688;SHT30;62257;48.376;-4.378;2023-01-05T08:59:14;13.29;86.48
73688;SHT30;62257;48.376;-4.378;2023-01-05T09:01:40;13.32;85.69
73688;SHT30;62257;48.376;-4.378;2023-01-05T09:04:05;13.30;85.67
73688;SHT30;62257;48.376;-4.378;2023-01-05T09:06:30;13.35;85.09
73688;SHT30;62257;48.376;-4.378;2023-01-05T09:08:56;13.42;86.32
73688;SHT30;62257;48.376;-4.378;2023-01-05T09:11:23;13.43;86.28
73688;SHT30;62257;48.376;-4.378;2023-01-05T09:13:58;13.40;85.44
73688;SHT30;62257;48.376;-4.378;2023-01-05T09:16:26;13.45;85.17
73688;SHT30;62257;48.376;-4.378;2023-01-05T09:18:52;13.46;84.84
73688;SHT30;62257;48.376;-4.378;2023-01-05T09:21:18;13.46;85.15
73688;SHT30;62257;48.376;-4.378;2023-01-05T09:23:43;13.48;86.06
73688;SHT30;62257;48.376;-4.378;2023-01-05T09:26:11;13.53;85.44
73688;SHT30;62257;48.376;-4.378;2023-01-05T09:28:37;13.59;85.46
73688;SHT30;62257;48.376;-4.378;2023-01-05T09:31:12;13.63;85.35
73688;SHT30;62257;48.376;-4.378;2023-01-05T09:33:39;13.67;85.31
73688;SHT30;62257;48.376;-4.378;2023-01-05T09:36:05;13.71;85.45
73688;SHT30;62257;48.376;-4.378;2023-01-05T09:38:32;13.73;84.66
73688;SHT30;62257;48.376;-4.378;2023-01-05T09:41:26;13.73;84.47
73688;SHT30;62257;48.376;-4.378;2023-01-05T09:44:05;13.76;85.73
73688;SHT30;62257;48.376;-4.378;2023-01-05T09:46:38;13.74;84.65
73688;SHT30;62257;48.376;-4.378;2023-01-05T09:49:09;13.83;85.43
73688;SHT30;62257;48.376;-4.378;2023-01-05T09:51:36;13.84;84.95
73688;SHT30;62257;48.376;-4.378;2023-01-05T09:54:02;13.86;84.77
73688;SHT30;62257;48.376;-4.378;2023-01-05T09:56:34;13.84;84.73
73688;SHT30;62257;48.376;-4.378;2023-01-05T09:59:13;13.90;83.78
73688;SHT30;62257;48.376;-4.378;2023-01-05T10:01:40;13.95;84.64
73688;SHT30;62257;48.376;-4.378;2023-01-05T10:04:17;13.98;84.49
73688;SHT30;62257;48.376;-4.378;2023-01-05T10:06:59;14.03;84.46
73688;SHT30;62257;48.376;-4.378;2023-01-05T10:09:31;14.04;85.48
73688;SHT30;62257;48.376;-4.378;2023-01-05T10:11:58;14.10;85.36
73688;SHT30;62257;48.376;-4.378;2023-01-05T10:14:53;14.18;85.50
73688;SHT30;62257;48.376;-4.378;2023-01-05T10:17:21;14.22;83.67
73688;SHT30;62257;48.376;-4.378;2023-01-05T10:19:48;14.29;84.71
73688;SHT30;62257;48.376;-4.378;2023-01-05T10:26:00;14.39;82.75
73688;SHT30;62257;48.376;-4.378;2023-01-05T10:28:33;14.42;82.76
73688;SHT30;62257;48.376;-4.378;2023-01-05T10:31:08;14.45;83.60
73688;SHT30;62257;48.376;-4.378;2023-01-05T10:33:47;14.42;82.29
73688;SHT30;62257;48.376;-4.378;2023-01-05T10:36:34;14.43;83.63
73688;SHT30;62257;48.376;-4.378;2023-01-05T10:39:31;14.43;81.40
73688;SHT30;62257;48.376;-4.378;2023-01-05T10:42:07;14.52;82.63
73688;SHT30;62257;48.376;-4.378;2023-01-05T10:44:57;14.52;82.73
73688;SHT30;62257;48.376;-4.378;2023-01-05T10:47:25;14.53;83.33
73688;SHT30;62257;48.376;-4.378;2023-01-05T10:49:51;14.59;84.36
73688;SHT30;62257;48.376;-4.378;2023-01-05T10:52:18;14.62;84.39
73688;SHT30;62257;48.376;-4.378;2023-01-05T10:54:55;14.66;84.95
73688;SHT30;62257;48.376;-4.378;2023-01-05T10:57:38;14.66;83.25
73688;SHT30;62257;48.376;-4.378;2023-01-05T11:02:42;14.70;82.22
73688;SHT30;62257;48.376;-4.378;2023-01-05T11:07:47;14.68;83.43
73688;SHT30;62257;48.376;-4.378;2023-01-05T11:10:27;14.70;83.21
73688;SHT30;62257;48.376;-4.378;2023-01-05T11:13:05;14.75;81.86
73688;SHT30;62257;48.376;-4.378;2023-01-05T11:15:34;14.76;82.44
73688;SHT30;62257;48.376;-4.378;2023-01-05T11:18:04;14.87;81.90
73688;SHT30;62257;48.376;-4.378;2023-01-05T11:20:30;15.04;81.80
73688;SHT30;62257;48.376;-4.378;2023-01-05T11:22:56;15.16;83.54
73688;SHT30;62257;48.376;-4.378;2023-01-05T11:25:32;15.07;83.67
73688;SHT30;62257;48.376;-4.378;2023-01-05T11:28:13;15.00;83.80
73688;SHT30;62257;48.376;-4.378;2023-01-05T11:31:00;14.94;84.04
73688;SHT30;62257;48.376;-4.378;2023-01-05T11:33:28;14.94;82.71
73688;SHT30;62257;48.376;-4.378;2023-01-05T11:35:55;14.89;82.71
73688;SHT30;62257;48.376;-4.378;2023-01-05T11:38:28;14.91;83.06
73688;SHT30;62257;48.376;-4.378;2023-01-05T11:40:56;14.93;81.49
73688;SHT30;62257;48.376;-4.378;2023-01-05T11:43:25;14.97;80.69
73688;SHT30;62257;48.376;-4.378;2023-01-05T11:45:58;14.98;82.50
73688;SHT30;62257;48.376;-4.378;2023-01-05T11:48:26;15.01;81.71
73688;SHT30;62257;48.376;-4.378;2023-01-05T11:50:54;15.11;81.96
73688;SHT30;62257;48.376;-4.378;2023-01-05T11:53:34;15.11;85.15
73688;SHT30;62257;48.376;-4.378;2023-01-05T11:56:01;15.08;81.71
73688;SHT30;62257;48.376;-4.378;2023-01-05T11:58:32;15.10;81.62
73688;SHT30;62257;48.376;-4.378;2023-01-05T12:06:58;15.12;81.78
73688;SHT30;62257;48.376;-4.378;2023-01-05T12:28:38;15.28;82.21
73688;SHT30;62257;48.376;-4.378;2023-01-05T12:39:33;15.28;78.33
73688;SHT30;62257;48.376;-4.378;2023-01-05T12:47:49;15.27;82.34
73688;SHT30;62257;48.376;-4.378;2023-01-05T12:50:31;15.21;78.20
73688;SHT30;62257;48.376;-4.378;2023-01-05T12:55:45;15.18;80.30
73688;SHT30;62257;48.376;-4.378;2023-01-05T13:00:55;15.08;80.20
73688;SHT30;62257;48.376;-4.378;2023-01-05T13:08:34;15.04;80.58
73688;SHT30;62257;48.376;-4.378;2023-01-05T13:11:24;15.10;78.92
73688;SHT30;62257;48.376;-4.378;2023-01-05T13:14:04;15.10;79.65
73688;SHT30;62257;48.376;-4.378;2023-01-05T13:16:54;15.14;82.24
73688;SHT30;62257;48.376;-4.378;2023-01-05T13:19:35;15.17;80.04
73688;SHT30;62257;48.376;-4.378;2023-01-05T13:22:05;15.11;79.54
73688;SHT30;62257;48.376;-4.378;2023-01-05T13:24:37;15.06;78.29
73688;SHT30;62257;48.376;-4.378;2023-01-05T13:27:04;14.98;78.63
73688;SHT30;62257;48.376;-4.378;2023-01-05T13:29:34;15.01;78.38
73688;SHT30;62257;48.376;-4.378;2023-01-05T13:32:27;15.04;78.73
73688;SHT30;62257;48.376;-4.378;2023-01-05T13:52:01;15.17;78.89
73688;SHT30;62257;48.376;-4.378;2023-01-05T13:54:53;15.16;79.58
73688;SHT30;62257;48.376;-4.378;2023-01-05T13:57:28;15.14;79.48
73688;SHT30;62257;48.376;-4.378;2023-01-05T14:00:00;15.08;78.30
73688;SHT30;62257;48.376;-4.378;2023-01-05T14:02:29;15.08;78.95
73688;SHT30;62257;48.376;-4.378;2023-01-05T14:04:56;15.11;78.38
73688;SHT30;62257;48.376;-4.378;2023-01-05T14:07:22;15.12;79.00
73688;SHT30;62257;48.376;-4.378;2023-01-05T14:09:52;15.16;78.68
73688;SHT30;62257;48.376;-4.378;2023-01-05T14:15:27;15.14;78.61
73688;SHT30;62257;48.376;-4.378;2023-01-05T14:17:57;15.16;76.71
73688;SHT30;62257;48.376;-4.378;2023-01-05T14:22:57;15.06;78.41
73688;SHT30;62257;48.376;-4.378;2023-01-05T14:36:35;14.49;82.20
73688;SHT30;62257;48.376;-4.378;2023-01-05T14:39:23;14.46;81.50
73688;SHT30;62257;48.376;-4.378;2023-01-05T14:42:05;14.43;80.66
73688;SHT30;62257;48.376;-4.378;2023-01-05T14:44:55;14.36;83.12
73688;SHT30;62257;48.376;-4.378;2023-01-05T14:47:40;14.39;83.10
73688;SHT30;62257;48.376;-4.378;2023-01-05T14:50:26;14.38;82.77
73688;SHT30;62257;48.376;-4.378;2023-01-05T14:57:50;14.53;82.93
73688;SHT30;62257;48.376;-4.378;2023-01-05T15:05:42;14.41;81.14
73688;SHT30;62257;48.376;-4.378;2023-01-05T15:14:00;14.18;83.88
73688;SHT30;62257;48.376;-4.378;2023-01-05T15:37:07;13.98;83.37
73688;SHT30;62257;48.376;-4.378;2023-01-05T15:39:47;13.97;83.51
73688;SHT30;62257;48.376;-4.378;2023-01-05T15:42:19;13.95;83.59
73688;SHT30;62257;48.376;-4.378;2023-01-05T15:44:47;13.94;84.53
73688;SHT30;62257;48.376;-4.378;2023-01-05T15:47:16;13.93;83.33
73688;SHT30;62257;48.376;-4.378;2023-01-05T15:49:42;13.88;84.18
73688;SHT30;62257;48.376;-4.378;2023-01-05T15:52:38;13.90;85.72
73688;SHT30;62257;48.376;-4.378;2023-01-05T15:55:10;13.90;85.86
73688;SHT30;62257;48.376;-4.378;2023-01-05T15:57:37;13.78;84.66
73688;SHT30;62257;48.376;-4.378;2023-01-05T16:00:22;13.74;84.09
73688;SHT30;62257;48.376;-4.378;2023-01-05T16:02:48;13.74;84.42
73688;SHT30;62257;48.376;-4.378;2023-01-05T16:05:17;13.71;84.01
73688;SHT30;62257;48.376;-4.378;2023-01-05T16:08:01;13.73;85.23
73688;SHT30;62257;48.376;-4.378;2023-01-05T16:10:37;13.67;85.52
73688;SHT30;62257;48.376;-4.378;2023-01-05T16:13:13;13.69;85.10
73688;SHT30;62257;48.376;-4.378;2023-01-05T16:15:42;13.67;85.05
73688;SHT30;62257;48.376;-4.378;2023-01-05T16:18:14;13.63;85.11
73688;SHT30;62257;48.376;-4.378;2023-01-05T16:20:41;13.60;84.56
73688;SHT30;62257;48.376;-4.378;2023-01-05T16:23:25;13.57;85.76
73688;SHT30;62257;48.376;-4.378;2023-01-05T16:25:56;13.50;85.35
73688;SHT30;62257;48.376;-4.378;2023-01-05T16:28:23;13.36;85.78
73688;SHT30;62257;48.376;-4.378;2023-01-05T16:30:50;13.25;84.78
73688;SHT30;62257;48.376;-4.378;2023-01-05T16:33:33;13.14;85.30
73688;SHT30;62257;48.376;-4.378;2023-01-05T16:36:18;13.04;85.55
73688;SHT30;62257;48.376;-4.378;2023-01-05T16:38:44;13.01;86.07
73688;SHT30;62257;48.376;-4.378;2023-01-05T16:43:56;13.05;85.92
73688;SHT30;62257;48.376;-4.378;2023-01-05T16:46:31;13.07;87.03
73688;SHT30;62257;48.376;-4.378;2023-01-05T16:49:26;13.04;87.70
73688;SHT30;62257;48.376;-4.378;2023-01-05T16:51:55;13.04;87.23
73688;SHT30;62257;48.376;-4.378;2023-01-05T16:54:26;13.02;86.39
73688;SHT30;62257;48.376;-4.378;2023-01-05T16:57:00;13.07;87.27
73688;SHT30;62257;48.376;-4.378;2023-01-05T16:59:31;13.07;88.52
73688;SHT30;62257;48.376;-4.378;2023-01-05T17:01:56;12.98;88.43
73688;SHT30;62257;48.376;-4.378;2023-01-05T17:04:22;12.94;88.32
73688;SHT30;62257;48.376;-4.378;2023-01-05T17:06:49;12.90;88.96
73688;SHT30;62257;48.376;-4.378;2023-01-05T17:09:27;12.87;88.84
73688;SHT30;62257;48.376;-4.378;2023-01-05T17:11:53;12.88;89.09
73688;SHT30;62257;48.376;-4.378;2023-01-05T17:14:20;12.85;88.94
73688;SHT30;62257;48.376;-4.378;2023-01-05T17:16:46;12.84;89.60
73688;SHT30;62257;48.376;-4.378;2023-01-05T17:19:14;12.84;89.63
73688;SHT30;62257;48.376;-4.378;2023-01-05T17:21:59;12.81;89.57
73688;SHT30;62257;48.376;-4.378;2023-01-05T17:24:26;12.83;88.95
73688;SHT30;62257;48.376;-4.378;2023-01-05T17:26:51;12.80;88.84
73688;SHT30;62257;48.376;-4.378;2023-01-05T17:29:20;12.77;88.73
73688;SHT30;62257;48.376;-4.378;2023-01-05T17:31:46;12.76;88.96
73688;SHT30;62257;48.376;-4.378;2023-01-05T17:34:11;12.74;89.07
73688;SHT30;62257;48.376;-4.378;2023-01-05T17:36:37;12.70;88.45
73688;SHT30;62257;48.376;-4.378;2023-01-05T17:39:03;12.72;88.58
73688;SHT30;62257;48.376;-4.378;2023-01-05T17:41:29;12.72;88.76
73688;SHT30;62257;48.376;-4.378;2023-01-05T17:43:54;12.72;88.00
73688;SHT30;62257;48.376;-4.378;2023-01-05T17:46:24;12.72;88.86
73688;SHT30;62257;48.376;-4.378;2023-01-05T17:48:51;12.72;88.44
73688;SHT30;62257;48.376;-4.378;2023-01-05T17:51:17;12.65;88.57
73688;SHT30;62257;48.376;-4.378;2023-01-05T17:53:42;12.68;88.30
73688;SHT30;62257;48.376;-4.378;2023-01-05T17:56:07;12.65;88.48
73688;SHT30;62257;48.376;-4.378;2023-01-05T17:58:33;12.61;88.95
73688;SHT30;62257;48.376;-4.378;2023-01-05T18:00:58;12.57;88.30
73688;SHT30;62257;48.376;-4.378;2023-01-05T18:03:23;12.56;88.47
73688;SHT30;62257;48.376;-4.378;2023-01-05T18:05:51;12.59;89.01
73688;SHT30;62257;48.376;-4.378;2023-01-05T18:08:18;12.61;88.74